Forside
METAR-TAF:

METAR-TAF

Lufthavne :

Gary, Indiana, USA

Breddekreds: 41-37N, længdekreds: 087-25W, højde: 180 m

Aktuelle vejr

Denne rapport blev lavet for 40 minutter siden, kl. 13:45 UTC
Vind 7 kt fra nordnordøst
Temperatur 8°C
Fugtighed 66%
Tryk 1028 hPa
Sigt: 24.1 km
skyfri

METAR: KGYY 111345Z 03007KT 15SM CLR 08/02 A3036

Tid: 09:25 (14:25 UTC)

Vejrudsigter

Denne rapport blev lavet for 2 timer og 46 minutter siden, kl. 11:39 UTC
Foreløbig gælder fra 11 på 12 UTC til 12 på 12 UTC
Vind 6 kt fra nordnordøst
Sigt: 10 km
Nogle få skyer i en højde af 11000 ft
Fra 11 på 1300 UTC
Vind 12 kt fra nordnordøst med vindstød på up til 18 kt
Sigt: 10 km
Nogle få skyer i en højde af 6000 ft
Spredte skyer i en højde af 25000 ft
Fra 12 på 0100 UTC
Vind 6 kt fra nordnordøst
Sigt: 10 km
Spredte skyer i en højde af 25000 ft

TAF: KGYY 111139Z 1112/1212 02006KT P6SM FEW110 FM111300 03012G18KT P6SM FEW060 SCT250 FM120100 03006KT P6SM SCT250

Vejrobservationer og prognoser fra mere end 4000 lufthavne (METAR og TAF).

De gule og røde prikker repræsenterer de meteorologiske stationer.

Flyt musen over at se navnet på stationen.

Så klik over at se vejr observationer og prognoser.

At skifte det kort: Klik på de grønne knapper med et sort kors for at zoome ind; på den grønne knap med en bindestreg for at zoome ud; eller på de grønne pile for tilstødende kort.


METAR-TAF: